Flight Track Log - Related Links

Times and Time Zones

All times are in EST time to prevent confusion due to time zone crossing. See the N193PC flight status page for this flight to view local times or setup timezone preferences in your user account.

Time Position Orientation Groundspeed Altitude Reporting Facility
EST Latitude Longitude Course Direction KTS MPH feet Rate Location/Type
Thu 03:17:06 PM 42.2667 -71.3000 309° West 227 261 3,000  Level KA90
Thu 03:18:06 PM 42.3000 -71.3667 304° West 244 281 6,200 1,700 Climbing KA90
Thu 03:19:06 PM 42.3667 -71.4000 340° North 253 291 6,400 1,900 Climbing KA90
Thu 03:20:06 PM 42.4333 -71.4000 360° North 282 325 10,000 1,759 Climbing KA90
Thu 03:22:17 PM 42.5378 -71.2069 54° Northeast 310 357 12,000 969 Climbing Boston Center
Thu 03:23:18 PM 42.5850 -71.1017 59° Northeast 327 376 13,100 541 Climbing Boston Center
Thu 03:24:19 PM 42.6322 -70.9964 59° Northeast 328 377 13,100  Level Boston Center
Thu 03:25:23 PM 42.6833 -70.8819 59° Northeast 330 380 13,100  Level Boston Center
Thu 03:26:23 PM 42.7297 -70.7756 59° Northeast 329 379 13,100  Level Boston Center
Thu 03:27:23 PM 42.7764 -70.6689 59° Northeast 330 380 13,100  Level Boston Center
Thu 03:28:24 PM 42.8422 -70.5783 45° Northeast 317 365 13,100 -49 Level Boston Center
Thu 03:29:25 PM 42.9167 -70.5172 31° Northeast 313 360 13,000 -443 Descending Boston Center
Thu 03:30:26 PM 42.9889 -70.4522 33° Northeast 312 359 12,200 -934 Descending Boston Center
Thu 03:31:27 PM 43.0608 -70.3906 32° Northeast 306 352 11,100 -864 Descending Boston Center
Thu 03:32:31 PM 43.1375 -70.3242 32° Northeast 311 358 10,400 -1,065 Descending Boston Center
Thu 03:33:31 PM 43.2056 -70.2639 33° Northeast 295 339 8,900 -1,525 Descending Boston Center
Thu 03:34:33 PM 43.2756 -70.2031 32° Northeast 275 316 7,300 -1,525 Descending Boston Center
Thu 03:35:33 PM 43.3408 -70.1908 North 235 270 5,800 -1,537 Descending Boston Center
Thu 03:36:34 PM 43.4019 -70.1831 North 221 254 4,200 -1,366 Descending Boston Center
Thu 03:37:36 PM 43.4658 -70.1764 North 230 265 3,000 -634 Descending Boston Center
Thu 03:38:37 PM 43.5336 -70.1683 North 226 260 2,900 -492 Descending Boston Center
Thu 03:39:38 PM 43.5922 -70.1656 North 215 247 2,000 -738 Descending Boston Center
Thu 03:40:39 PM 43.6453 -70.1900 342° North 201 231 1,400 -541 Descending Boston Center
Thu 03:41:40 PM 43.6522 -70.2450 280° West 170 196 900 -639 Descending Boston Center
Thu 03:42:41 PM 43.6444 -70.2961 258° West 131 151 100 4,967 Descending Boston Center
Thu 03:43:42 PM 43.6469 -70.3339 275° West 129 148 11,000 10,721 Climbing Boston Center
Thu 03:45:00 PM 43.6456 -70.3086 90° East  Level Estimated

Login

Don't have an account? Register now (free) for customized features, flight alerts, and more!